Time;durP1;ratioP1;P1;durP2;ratioP2;P2;SDS_P1;SDS_P2;PMS_P1;PMS_P2;Temp;Humidity;BMP_temperature;BMP_pressure;BME280_temperature;BME280_humidity;BME280_pressure;Samples;Min_cycle;Max_cycle;Signal;HPM_P1;HPM_P2
2022/04/02 00:00:16;;;;;;;4.67;1.97;;;3.50;99.90;;;;;;5054599;28;20209;-79
2022/04/02 00:02:43;;;;;;;2.50;1.73;;;3.40;99.90;;;;;;5044633;28;20496;-79
2022/04/02 00:05:10;;;;;;;6.53;2.93;;;3.30;99.90;;;;;;5057104;28;20232;-80
2022/04/02 00:07:37;;;;;;;4.70;2.33;;;3.30;99.90;;;;;;5064438;28;20193;-78
2022/04/02 00:10:05;;;;;;;3.97;2.07;;;3.20;99.90;;;;;;5064424;28;20221;-79
2022/04/02 00:12:32;;;;;;;2.50;1.73;;;3.20;99.90;;;;;;5064301;28;20201;-78
2022/04/02 00:15:00;;;;;;;6.60;2.23;;;3.30;99.90;;;;;;5064493;28;20212;-76
2022/04/02 00:17:27;;;;;;;8.50;2.30;;;3.30;99.90;;;;;;5064418;28;20208;-79
2022/04/02 00:19:55;;;;;;;7.53;3.00;;;3.40;99.90;;;;;;5064340;28;20237;-80
2022/04/02 00:22:22;;;;;;;10.33;2.17;;;3.50;99.90;;;;;;5064331;28;20339;-78
2022/04/02 00:24:48;;;;;;;6.40;2.00;;;3.50;99.90;;;;;;5064581;28;20208;-78
2022/04/02 00:27:15;;;;;;;7.27;1.93;;;3.60;99.90;;;;;;5063873;28;20201;-78
2022/04/02 00:29:42;;;;;;;4.53;2.27;;;3.60;99.90;;;;;;5064396;28;20440;-79
2022/04/02 00:32:10;;;;;;;4.10;2.03;;;3.60;99.90;;;;;;5065418;28;20197;-80
2022/04/02 00:34:37;;;;;;;7.63;2.10;;;3.60;99.90;;;;;;5063070;28;20212;-76
2022/04/02 00:37:04;;;;;;;4.23;2.30;;;3.50;99.90;;;;;;5063936;28;20292;-77
2022/04/02 00:39:31;;;;;;;3.73;2.23;;;3.50;99.90;;;;;;5063524;28;20209;-79
2022/04/02 00:41:58;;;;;;;5.67;2.00;;;3.40;99.90;;;;;;5063215;28;20208;-78
2022/04/02 00:44:26;;;;;;;6.63;2.13;;;3.40;99.90;;;;;;5063511;28;20208;-79
2022/04/02 00:46:53;;;;;;;3.00;1.80;;;3.40;99.90;;;;;;5057882;28;20205;-79
2022/04/02 00:49:21;;;;;;;4.10;1.93;;;3.30;99.90;;;;;;5058926;28;20209;-79
2022/04/02 00:51:51;;;;;;;5.93;2.43;;;3.30;99.90;;;;;;5048166;28;20213;-79
2022/04/02 00:54:19;;;;;;;3.23;2.00;;;3.30;99.90;;;;;;5062825;28;20526;-78
2022/04/02 00:56:47;;;;;;;4.80;2.50;;;3.30;99.90;;;;;;5059844;28;20212;-79
2022/04/02 00:59:14;;;;;;;4.70;2.20;;;3.20;99.90;;;;;;5043235;28;20324;-78
2022/04/02 01:01:43;;;;;;;3.90;1.80;;;3.20;99.90;;;;;;5043528;28;20202;-80
2022/04/02 01:04:10;;;;;;;5.07;2.03;;;3.30;99.90;;;;;;5043444;28;20213;-79
2022/04/02 01:06:40;;;;;;;3.50;2.00;;;3.20;99.90;;;;;;5058327;28;20216;-80
2022/04/02 01:09:09;;;;;;;4.80;2.30;;;3.20;99.90;;;;;;5065468;28;20286;-79
2022/04/02 01:11:37;;;;;;;4.77;2.13;;;3.20;99.90;;;;;;5062362;28;20639;-80
2022/04/02 01:14:04;;;;;;;6.87;2.37;;;3.20;99.90;;;;;;5055023;28;20237;-78
2022/04/02 01:16:32;;;;;;;4.73;2.30;;;3.20;99.90;;;;;;5043876;28;20209;-79
2022/04/02 01:18:59;;;;;;;4.00;2.30;;;3.20;99.90;;;;;;5043122;28;20230;-79
2022/04/02 01:21:27;;;;;;;3.87;2.37;;;3.20;99.90;;;;;;5042370;28;20194;-78
2022/04/02 01:23:56;;;;;;;3.17;2.10;;;3.20;99.90;;;;;;5061462;28;20201;-79
2022/04/02 01:26:22;;;;;;;4.17;1.90;;;3.20;99.90;;;;;;5063380;28;20266;-79
2022/04/02 01:28:53;;;;;;;3.30;2.13;;;3.30;99.90;;;;;;5064725;28;20205;-80
2022/04/02 01:31:21;;;;;;;4.43;2.30;;;3.30;99.90;;;;;;5063489;28;20224;-79
2022/04/02 01:33:49;;;;;;;3.73;2.10;;;3.30;99.90;;;;;;5062966;28;20197;-79
2022/04/02 01:36:16;;;;;;;3.23;2.07;;;3.30;99.90;;;;;;5060600;28;20210;-80
2022/04/02 01:38:44;;;;;;;3.57;2.47;;;3.30;99.90;;;;;;5046999;28;20209;-80
2022/04/02 01:41:12;;;;;;;2.87;2.40;;;3.30;99.90;;;;;;5060412;28;20668;-77
2022/04/02 01:43:39;;;;;;;3.67;1.97;;;3.30;99.90;;;;;;5066831;28;20287;-77
2022/04/02 01:46:07;;;;;;;5.27;2.30;;;3.30;99.90;;;;;;5058174;28;20218;-78
2022/04/02 01:48:34;;;;;;;3.40;1.90;;;3.30;99.90;;;;;;5059528;28;20296;-80
2022/04/02 01:51:01;;;;;;;2.97;2.13;;;3.30;99.90;;;;;;5066556;28;20331;-79
2022/04/02 01:53:28;;;;;;;5.07;2.07;;;3.30;99.90;;;;;;5066122;28;20205;-79
2022/04/02 01:55:56;;;;;;;3.00;1.97;;;3.20;99.90;;;;;;5066936;28;20263;-80
2022/04/02 01:58:24;;;;;;;2.77;1.93;;;3.20;99.90;;;;;;5066924;28;20201;-79
2022/04/02 02:00:50;;;;;;;3.73;2.00;;;3.10;99.90;;;;;;5066294;28;20205;-77
2022/04/02 02:03:18;;;;;;;2.17;1.97;;;3.10;99.90;;;;;;5066460;28;20197;-79
2022/04/02 02:05:45;;;;;;;3.97;2.10;;;3.20;99.90;;;;;;5057976;28;20691;-79
2022/04/02 02:08:13;;;;;;;3.80;2.00;;;3.20;99.90;;;;;;5046211;28;20210;-80
2022/04/02 02:10:39;;;;;;;2.73;2.07;;;3.20;99.90;;;;;;5048656;28;20224;-79
2022/04/02 02:13:06;;;;;;;3.23;2.20;;;3.20;99.90;;;;;;5066914;28;20220;-79
2022/04/02 02:15:34;;;;;;;4.57;2.93;;;3.10;99.90;;;;;;5065873;28;20209;-77
2022/04/02 02:18:01;;;;;;;3.03;1.93;;;3.10;99.90;;;;;;5056340;28;20210;-79
2022/04/02 02:20:28;;;;;;;2.10;1.90;;;3.10;99.90;;;;;;5046303;28;20238;-78
2022/04/02 02:22:55;;;;;;;3.13;1.87;;;3.00;99.90;;;;;;5046754;28;20206;-79
2022/04/02 02:25:21;;;;;;;5.67;2.63;;;3.10;99.90;;;;;;5046427;28;20201;-80
2022/04/02 02:27:48;;;;;;;6.63;2.50;;;3.10;99.90;;;;;;5046525;28;20308;-80
2022/04/02 02:30:16;;;;;;;3.90;2.00;;;3.00;99.90;;;;;;5048079;28;20319;-81
2022/04/02 02:32:45;;;;;;;4.50;2.30;;;3.00;99.90;;;;;;5066052;28;20212;-79
2022/04/02 02:38:04;;;;;;;3.27;1.87;;;3.10;99.90;;;;;;5066393;28;20519;-80
2022/04/02 02:40:31;;;;;;;4.80;2.00;;;3.20;99.90;;;;;;5054906;28;20217;-81
2022/04/02 02:42:58;;;;;;;3.47;2.20;;;3.20;99.90;;;;;;5045717;28;20201;-77
2022/04/02 02:45:25;;;;;;;4.83;2.07;;;3.30;99.90;;;;;;5045564;28;20213;-79
2022/04/02 02:47:53;;;;;;;3.73;2.00;;;3.30;99.90;;;;;;5052729;28;20202;-80
2022/04/02 02:50:20;;;;;;;3.63;2.47;;;3.30;99.90;;;;;;5065718;28;20228;-77
2022/04/02 02:52:47;;;;;;;4.83;2.10;;;3.30;99.90;;;;;;5064861;28;20621;-78
2022/04/02 02:55:13;;;;;;;3.10;1.93;;;3.30;99.90;;;;;;5045009;28;20205;-77
2022/04/02 02:57:41;;;;;;;2.47;1.97;;;3.30;99.90;;;;;;5050683;28;20216;-78
2022/04/02 03:00:09;;;;;;;2.57;1.80;;;3.20;99.90;;;;;;5065266;28;20205;-79
2022/04/02 03:02:37;;;;;;;4.70;1.87;;;3.30;99.90;;;;;;5065477;28;20216;-80
2022/04/02 03:05:11;;;;;;;3.87;1.90;;;3.20;99.90;;;;;;5059202;28;20198;-79
2022/04/02 03:07:39;;;;;;;6.03;2.33;;;3.20;99.90;;;;;;5045695;28;20193;-80
2022/04/02 03:10:07;;;;;;;4.07;2.20;;;3.20;99.90;;;;;;5045425;28;20202;-80
2022/04/02 03:12:34;;;;;;;6.07;2.83;;;3.30;99.90;;;;;;5044231;28;20237;-79
2022/04/02 03:15:02;;;;;;;3.77;2.53;;;3.30;99.90;;;;;;5046105;28;20213;-78
2022/04/02 03:17:31;;;;;;;4.47;2.57;;;3.30;99.90;;;;;;5045063;28;20209;-79
2022/04/02 03:19:58;;;;;;;3.87;1.90;;;3.20;99.90;;;;;;5044402;28;20241;-78
2022/04/02 03:22:27;;;;;;;3.67;2.27;;;3.20;99.90;;;;;;5044920;28;20681;-78
2022/04/02 03:24:54;;;;;;;4.20;2.00;;;3.20;99.90;;;;;;5045203;28;21022;-79
2022/04/02 03:27:21;;;;;;;6.43;2.30;;;3.20;99.90;;;;;;5045714;28;20205;-79
2022/04/02 03:29:48;;;;;;;2.70;2.50;;;3.20;99.90;;;;;;5045653;28;20696;-79
2022/04/02 03:32:15;;;;;;;4.17;2.07;;;3.20;99.90;;;;;;5044803;28;20225;-80
2022/04/02 03:34:41;;;;;;;2.67;1.70;;;3.20;99.90;;;;;;5044760;28;20217;-78
2022/04/02 03:37:08;;;;;;;4.73;2.00;;;3.20;99.90;;;;;;5045238;28;20209;-78
2022/04/02 03:39:36;;;;;;;3.03;2.33;;;3.20;99.90;;;;;;5044221;28;20297;-78
2022/04/02 03:42:04;;;;;;;5.30;2.30;;;3.10;99.90;;;;;;5044913;28;20697;-77
2022/04/02 03:44:31;;;;;;;4.17;2.40;;;3.10;99.90;;;;;;5045097;28;20205;-77
2022/04/02 03:47:09;;;;;;;5.20;1.93;;;3.00;99.90;;;;;;5043989;28;20198;-78
2022/04/02 03:49:36;;;;;;;4.40;2.07;;;3.00;99.90;;;;;;5058590;28;20206;-78
2022/04/02 03:52:04;;;;;;;3.60;1.97;;;2.90;99.90;;;;;;5044888;28;20232;-78
2022/04/02 03:54:31;;;;;;;3.30;1.90;;;2.80;99.90;;;;;;5047046;28;20193;-78
2022/04/02 03:56:59;;;;;;;4.97;2.07;;;2.80;99.90;;;;;;5064507;28;20201;-77
2022/04/02 03:59:26;;;;;;;6.20;2.10;;;2.70;99.90;;;;;;5063740;28;20197;-78
2022/04/02 04:01:53;;;;;;;3.23;1.83;;;2.80;99.90;;;;;;5056317;28;20793;-78
2022/04/02 04:04:19;;;;;;;3.80;2.00;;;2.70;99.90;;;;;;5043725;28;20210;-79
2022/04/02 04:06:47;;;;;;;3.70;2.00;;;2.70;99.90;;;;;;5044789;28;20578;-78
2022/04/02 04:09:14;;;;;;;7.20;1.87;;;2.70;99.90;;;;;;5045986;28;20213;-78
2022/04/02 04:11:41;;;;;;;4.97;2.07;;;2.70;99.90;;;;;;5063538;28;20299;-77
2022/04/02 04:14:09;;;;;;;3.00;1.97;;;2.60;99.90;;;;;;5063429;28;20277;-78
2022/04/02 04:16:36;;;;;;;3.63;1.40;;;2.70;99.90;;;;;;5044841;28;20504;-77
2022/04/02 04:19:03;;;;;;;3.23;2.00;;;2.70;99.90;;;;;;5044356;28;20245;-78
2022/04/02 04:21:30;;;;;;;2.90;1.70;;;2.70;99.90;;;;;;5043851;28;20190;-78
2022/04/02 04:23:57;;;;;;;4.43;1.80;;;2.70;99.90;;;;;;5044022;28;20202;-78
2022/04/02 04:26:23;;;;;;;3.90;2.20;;;2.60;99.90;;;;;;5062996;28;20216;-77
2022/04/02 04:28:50;;;;;;;4.23;2.20;;;2.60;99.90;;;;;;5063564;28;20208;-80
2022/04/02 04:31:18;;;;;;;4.53;2.60;;;2.60;99.90;;;;;;5058975;28;20228;-80
2022/04/02 04:33:45;;;;;;;3.70;2.43;;;2.60;99.90;;;;;;5043909;28;20578;-78
2022/04/02 04:36:13;;;;;;;5.07;1.90;;;2.60;99.90;;;;;;5043683;28;20462;-79
2022/04/02 04:38:40;;;;;;;2.97;2.10;;;2.60;99.90;;;;;;5044256;28;20548;-76
2022/04/02 04:41:06;;;;;;;6.00;2.47;;;2.70;99.90;;;;;;5043279;28;20206;-79
2022/04/02 04:43:35;;;;;;;3.40;2.20;;;2.70;99.90;;;;;;5043257;28;20297;-79
2022/04/02 04:46:03;;;;;;;5.30;2.30;;;2.70;99.90;;;;;;5043831;28;20202;-78
2022/04/02 04:48:31;;;;;;;4.07;2.27;;;2.70;99.90;;;;;;5043883;28;20220;-77
2022/04/02 04:50:58;;;;;;;3.77;2.13;;;2.70;99.90;;;;;;5043529;28;20214;-78
2022/04/02 04:53:24;;;;;;;4.70;2.37;;;2.60;99.90;;;;;;5043620;28;20201;-80
2022/04/02 04:55:51;;;;;;;6.73;2.53;;;2.60;99.90;;;;;;5059797;28;20212;-78
2022/04/02 04:58:18;;;;;;;6.97;2.37;;;2.70;99.90;;;;;;5063079;28;20212;-78
2022/04/02 05:00:45;;;;;;;3.30;2.33;;;2.70;99.90;;;;;;5063935;28;20201;-77
2022/04/02 05:03:12;;;;;;;5.90;2.43;;;2.70;99.90;;;;;;5044701;28;20210;-77
2022/04/02 05:05:41;;;;;;;2.20;1.90;;;2.80;99.90;;;;;;5049239;28;20627;-79
2022/04/02 05:08:09;;;;;;;4.67;2.43;;;2.80;99.90;;;;;;5062959;28;20606;-78
2022/04/02 05:10:39;;;;;;;3.60;2.40;;;2.70;99.90;;;;;;5063316;28;20193;-80
2022/04/02 05:13:08;;;;;;;5.17;2.60;;;2.70;99.90;;;;;;5065675;28;20237;-77
2022/04/02 05:15:35;;;;;;;5.93;2.70;;;2.80;99.90;;;;;;5067027;28;20201;-80
2022/04/02 05:18:02;;;;;;;4.20;2.50;;;2.80;99.90;;;;;;5064978;28;20201;-77
2022/04/02 05:20:30;;;;;;;4.73;2.33;;;2.80;99.90;;;;;;5057151;28;20241;-78
2022/04/02 05:22:58;;;;;;;5.53;2.50;;;2.80;99.90;;;;;;5053541;28;20196;-80
2022/04/02 05:25:25;;;;;;;4.87;2.67;;;2.80;99.90;;;;;;5066750;28;20196;-78
2022/04/02 05:27:54;;;;;;;5.13;2.90;;;2.80;99.90;;;;;;5054492;28;20802;-78
2022/04/02 05:30:21;;;;;;;5.00;3.20;;;2.70;99.90;;;;;;5046900;28;20664;-79
2022/04/02 05:32:48;;;;;;;6.20;2.33;;;2.70;99.90;;;;;;5047979;28;20229;-79
2022/04/02 05:35:15;;;;;;;6.70;2.67;;;2.70;99.90;;;;;;5047030;28;20201;-79
2022/04/02 05:37:45;;;;;;;3.57;2.67;;;2.60;99.90;;;;;;5052921;28;20208;-78
2022/04/02 05:40:14;;;;;;;5.90;2.40;;;2.60;99.90;;;;;;5067231;28;20209;-79
2022/04/02 05:42:41;;;;;;;3.97;2.57;;;2.60;99.90;;;;;;5052663;28;20507;-80
2022/04/02 05:45:09;;;;;;;3.63;2.23;;;2.60;99.90;;;;;;5046761;28;20206;-79
2022/04/02 05:47:43;;;;;;;3.83;2.70;;;2.60;99.90;;;;;;5052142;28;20206;-77
2022/04/02 05:50:11;;;;;;;9.00;3.07;;;2.50;99.90;;;;;;5062137;28;20209;-80
2022/04/02 05:52:38;;;;;;;5.57;2.97;;;2.50;99.90;;;;;;5046009;28;20226;-77
2022/04/02 05:55:06;;;;;;;5.00;2.70;;;2.50;99.90;;;;;;5047022;28;20202;-79
2022/04/02 05:57:34;;;;;;;3.20;2.23;;;2.50;99.90;;;;;;5046053;28;20221;-79
2022/04/02 06:00:01;;;;;;;5.20;3.93;;;2.40;99.90;;;;;;5045820;28;20209;-80
2022/04/02 06:02:28;;;;;;;5.20;2.80;;;2.40;99.90;;;;;;5046771;28;20198;-80
2022/04/02 06:04:56;;;;;;;7.07;3.00;;;2.40;99.90;;;;;;5055652;28;20204;-77
2022/04/02 06:07:23;;;;;;;4.57;2.63;;;2.40;99.90;;;;;;5066070;28;20198;-75
2022/04/02 06:09:50;;;;;;;4.87;3.17;;;2.40;99.90;;;;;;5054161;28;20293;-77
2022/04/02 06:12:16;;;;;;;2.53;2.33;;;2.50;99.90;;;;;;5066544;28;20961;-77
2022/04/02 06:14:44;;;;;;;5.77;2.70;;;2.50;99.90;;;;;;5065458;28;20220;-77
2022/04/02 06:17:11;;;;;;;4.43;2.60;;;2.60;99.90;;;;;;5067345;28;20217;-78
2022/04/02 06:19:38;;;;;;;2.93;2.20;;;2.70;99.90;;;;;;5066813;28;20233;-77
2022/04/02 06:22:06;;;;;;;5.57;2.70;;;2.80;99.90;;;;;;5049954;28;20210;-78
2022/04/02 06:24:33;;;;;;;6.23;2.57;;;3.00;99.90;;;;;;5046398;28;20205;-76
2022/04/02 06:27:00;;;;;;;3.77;2.53;;;3.10;99.90;;;;;;5047280;28;20209;-77
2022/04/02 06:29:27;;;;;;;3.77;2.47;;;3.20;99.90;;;;;;5046184;28;20208;-78
2022/04/02 06:31:55;;;;;;;5.00;2.63;;;3.30;99.90;;;;;;5046950;28;20241;-78
2022/04/02 06:34:22;;;;;;;5.30;2.10;;;3.40;99.90;;;;;;5047303;28;20565;-78
2022/04/02 06:36:49;;;;;;;7.23;2.87;;;3.50;99.90;;;;;;5045925;28;20206;-77
2022/04/02 06:39:16;;;;;;;4.67;2.20;;;3.60;99.90;;;;;;5046533;28;20209;-77
2022/04/02 06:41:43;;;;;;;3.97;2.10;;;3.70;99.90;;;;;;5051403;28;20197;-76
2022/04/02 06:44:10;;;;;;;3.20;2.13;;;3.70;99.90;;;;;;5066808;28;20338;-80
2022/04/02 06:46:37;;;;;;;4.57;2.33;;;3.70;99.90;;;;;;5068918;28;20209;-76
2022/04/02 06:49:06;;;;;;;3.63;2.20;;;3.80;99.90;;;;;;5067005;28;20205;-79
2022/04/02 06:51:33;;;;;;;3.50;1.93;;;3.90;99.90;;;;;;5065609;28;20220;-78
2022/04/02 06:54:00;;;;;;;5.43;1.70;;;4.00;99.90;;;;;;5067297;28;20192;-78
2022/04/02 06:56:27;;;;;;;3.67;1.53;;;4.10;99.90;;;;;;5065949;28;20205;-77
2022/04/02 06:58:53;;;;;;;5.73;2.53;;;4.20;99.90;;;;;;5066213;28;20213;-79
2022/04/02 07:01:20;;;;;;;5.10;1.63;;;4.30;99.90;;;;;;5046592;28;20213;-77
2022/04/02 07:03:47;;;;;;;2.43;1.70;;;4.40;99.90;;;;;;5046177;28;20209;-78
2022/04/02 07:06:15;;;;;;;1.63;1.20;;;4.50;99.90;;;;;;5049934;28;20987;-77
2022/04/02 07:15:18;;;;;;;4.93;1.80;;;4.80;99.90;;;;;;5966215;22;20237;-79
2022/04/02 07:17:45;;;;;;;5.43;1.90;;;4.70;99.90;;;;;;5085492;28;20219;-76
2022/04/02 07:20:13;;;;;;;4.00;1.80;;;4.70;99.90;;;;;;5085519;28;20639;-79
2022/04/02 07:22:42;;;;;;;3.77;2.00;;;4.70;99.90;;;;;;5086170;28;20319;-76
2022/04/02 07:25:10;;;;;;;3.33;1.57;;;4.70;99.90;;;;;;5084698;28;20621;-78
2022/04/02 07:27:38;;;;;;;3.80;2.27;;;4.60;99.90;;;;;;5085117;28;20215;-76
2022/04/02 07:30:06;;;;;;;3.30;2.07;;;4.70;99.90;;;;;;5086402;28;20649;-80
2022/04/02 07:32:33;;;;;;;5.27;2.03;;;4.70;99.90;;;;;;5077950;28;20232;-78
2022/04/02 07:35:01;;;;;;;7.33;2.07;;;4.70;99.90;;;;;;5062372;28;20304;-77
2022/04/02 07:37:41;;;;;;;1.73;1.50;;;4.70;99.90;;;;;;5066289;28;20699;-82
2022/04/02 07:40:17;;;;;;;3.67;2.00;;;4.80;99.90;;;;;;5066731;28;20209;-79
2022/04/02 07:42:54;;;;;;;3.70;1.50;;;4.90;99.90;;;;;;5067065;28;20518;-81
2022/04/02 07:45:28;;;;;;;2.93;1.50;;;5.00;99.90;;;;;;5072506;28;20236;-81
2022/04/02 07:47:57;;;;;;;2.63;1.43;;;5.00;99.90;;;;;;5086686;28;20212;-81
2022/04/02 07:50:25;;;;;;;5.33;2.13;;;5.10;99.90;;;;;;5086974;28;20201;-81
2022/04/02 07:52:55;;;;;;;4.10;1.57;;;5.10;99.90;;;;;;5087238;28;20239;-80
2022/04/02 07:55:24;;;;;;;3.93;2.43;;;5.10;99.90;;;;;;5086622;28;20197;-82
2022/04/02 07:57:53;;;;;;;4.40;1.60;;;5.00;99.90;;;;;;5086913;28;20220;-78
2022/04/02 08:00:22;;;;;;;3.20;1.70;;;5.10;99.90;;;;;;5086998;28;20209;-80
2022/04/02 08:02:50;;;;;;;1.93;1.30;;;5.20;99.90;;;;;;5087593;28;20497;-78
2022/04/02 08:05:19;;;;;;;3.77;1.30;;;5.20;99.90;;;;;;5086539;28;20222;-81
2022/04/02 08:07:49;;;;;;;2.40;1.40;;;5.20;99.90;;;;;;5086030;28;20216;-81
2022/04/02 08:10:18;;;;;;;2.60;1.23;;;5.20;99.90;;;;;;5086712;28;20215;-76
2022/04/02 08:12:47;;;;;;;4.83;2.30;;;5.20;99.90;;;;;;5086930;28;20233;-79
2022/04/02 08:15:16;;;;;;;3.03;1.70;;;5.10;99.90;;;;;;5086404;28;20240;-80
2022/04/02 08:17:44;;;;;;;5.27;2.17;;;5.10;99.90;;;;;;5069685;28;20666;-81
2022/04/02 08:20:12;;;;;;;4.23;1.70;;;5.10;99.90;;;;;;5065637;28;20243;-76
2022/04/02 08:22:39;;;;;;;3.93;1.70;;;5.10;99.90;;;;;;5065332;28;20295;-79
2022/04/02 08:25:07;;;;;;;3.53;1.70;;;4.90;99.90;;;;;;5066230;28;20216;-78
2022/04/02 08:27:38;;;;;;;3.50;1.27;;;4.80;99.90;;;;;;5064515;28;20216;-83
2022/04/02 08:30:10;;;;;;;4.00;2.17;;;4.80;99.90;;;;;;5063258;28;20220;-80
2022/04/02 08:32:54;;;;;;;3.73;1.87;;;4.80;99.90;;;;;;5064224;28;20232;-81
2022/04/02 08:35:27;;;;;;;2.63;1.50;;;4.90;99.90;;;;;;5063565;28;20201;-77
2022/04/02 08:38:10;;;;;;;3.20;2.00;;;5.30;99.90;;;;;;5076175;28;20261;-78
2022/04/02 08:41:29;;;;;;;3.47;2.03;;;5.30;99.90;;;;;;5084074;28;20224;-78
2022/04/02 08:44:28;;;;;;;3.70;1.70;;;5.40;99.90;;;;;;5082661;28;20208;-80
2022/04/02 08:47:18;;;;;;;3.50;1.60;;;5.30;99.90;;;;;;5079352;28;20205;-82
2022/04/02 08:50:00;;;;;;;3.20;1.90;;;5.10;99.90;;;;;;5063986;28;20212;-79
2022/04/02 08:52:40;;;;;;;3.77;1.57;;;5.00;99.90;;;;;;5064769;28;20223;-80
2022/04/02 08:55:14;;;;;;;3.57;2.07;;;5.10;99.90;;;;;;5080824;28;20231;-80
2022/04/02 08:58:03;;;;;;;3.57;2.00;;;5.30;99.90;;;;;;5073919;28;20208;-79
2022/04/02 09:00:36;;;;;;;5.10;2.13;;;5.20;99.90;;;;;;5064392;28;20658;-80
2022/04/02 09:03:41;;;;;;;4.27;2.00;;;5.40;99.90;;;;;;5063785;28;20208;-79
2022/04/02 09:06:55;;;;;;;2.97;2.30;;;5.60;99.90;;;;;;5064380;28;20212;-80
2022/04/02 09:09:42;;;;;;;3.00;1.80;;;6.00;99.90;;;;;;5022053;28;20221;-78
2022/04/02 09:12:32;;;;;;;3.50;1.63;;;6.20;99.90;;;;;;5059510;28;20224;-79
2022/04/02 09:15:09;;;;;;;2.40;1.50;;;6.30;99.90;;;;;;5066296;28;20205;-84
2022/04/02 09:17:38;;;;;;;2.90;1.33;;;6.30;99.90;;;;;;5065351;28;20213;-82
2022/04/02 09:20:31;;;;;;;2.33;1.30;;;6.00;99.90;;;;;;5065176;28;20209;-82
2022/04/02 09:23:08;;;;;;;5.70;1.70;;;6.00;99.90;;;;;;5081734;28;20212;-81
2022/04/02 09:26:15;;;;;;;2.73;1.47;;;6.00;99.90;;;;;;5084569;28;20208;-79
2022/04/02 09:29:09;;;;;;;2.97;1.20;;;6.10;99.90;;;;;;5003436;28;20225;-83
2022/04/02 09:32:10;;;;;;;3.77;1.70;;;6.40;99.90;;;;;;5072109;28;20225;-79
2022/04/02 09:35:11;;;;;;;3.00;1.47;;;6.70;99.90;;;;;;5065379;28;20315;-82
2022/04/02 09:38:16;;;;;;;3.17;1.43;;;7.20;99.90;;;;;;5030683;28;20229;-78
2022/04/02 09:40:46;;;;;;;1.80;1.30;;;7.60;99.90;;;;;;5063640;28;20209;-79
2022/04/02 09:43:23;;;;;;;2.27;1.20;;;7.70;99.90;;;;;;5064983;28;20580;-79
2022/04/02 09:46:05;;;;;;;3.57;1.23;;;7.70;99.90;;;;;;5064761;28;20209;-79
2022/04/02 09:48:39;;;;;;;2.23;1.50;;;7.70;99.90;;;;;;5065615;28;20303;-79
2022/04/02 09:51:08;;;;;;;3.90;1.77;;;7.70;99.90;;;;;;5064922;28;20215;-78
2022/04/02 09:53:46;;;;;;;2.83;1.23;;;7.60;99.90;;;;;;5063589;28;20696;-78
2022/04/02 09:56:27;;;;;;;3.50;1.27;;;7.40;99.90;;;;;;5064582;28;20219;-87
2022/04/02 09:59:04;;;;;;;3.47;1.57;;;7.10;99.90;;;;;;5065990;28;20225;-78
2022/04/02 10:01:35;;;;;;;2.07;1.20;;;6.80;99.90;;;;;;5067964;28;20209;-80
2022/04/02 10:04:10;;;;;;;2.70;1.40;;;6.70;99.90;;;;;;5068216;28;20213;-82
2022/04/02 10:06:41;;;;;;;1.63;1.23;;;6.80;99.90;;;;;;5068110;28;20244;-82
2022/04/02 10:09:11;;;;;;;1.47;0.90;;;6.90;99.90;;;;;;5068820;28;20217;-79
2022/04/02 10:11:43;;;;;;;3.93;1.23;;;6.80;99.90;;;;;;5067953;28;20517;-79
2022/04/02 10:14:11;;;;;;;2.90;1.40;;;6.70;99.90;;;;;;5067842;28;20543;-81
2022/04/02 10:16:41;;;;;;;4.13;1.43;;;6.60;99.90;;;;;;5068176;28;20267;-78
2022/04/02 10:19:09;;;;;;;3.77;1.30;;;6.50;99.90;;;;;;5067064;28;20217;-80
2022/04/02 10:21:37;;;;;;;2.10;1.67;;;6.30;99.90;;;;;;5067221;28;20290;-79
2022/04/02 10:24:22;;;;;;;3.37;1.43;;;6.50;99.90;;;;;;5068164;28;20213;-80
2022/04/02 10:26:53;;;;;;;3.97;1.27;;;6.90;99.90;;;;;;5068512;28;20213;-81
2022/04/02 10:29:57;;;;;;;1.20;1.10;;;7.30;99.90;;;;;;5081558;28;20208;-84
2022/04/02 10:32:37;;;;;;;3.33;1.50;;;7.60;99.90;;;;;;5067152;28;20208;-82
2022/04/02 10:35:06;;;;;;;1.77;1.00;;;7.40;99.90;;;;;;5066217;28;20217;-80
2022/04/02 10:37:40;;;;;;;4.33;1.43;;;7.20;99.90;;;;;;5065521;28;20213;-82
2022/04/02 10:40:10;;;;;;;2.93;1.30;;;7.10;99.90;;;;;;5066609;28;20233;-82
2022/04/02 10:42:38;;;;;;;2.73;1.60;;;7.00;99.90;;;;;;5083037;28;20208;-79
2022/04/02 10:45:07;;;;;;;1.27;1.03;;;6.90;99.90;;;;;;5088333;28;20579;-80
2022/04/02 10:47:44;;;;;;;3.20;1.10;;;6.90;99.90;;;;;;5087611;28;20204;-83
2022/04/02 10:50:11;;;;;;;1.83;1.13;;;7.30;99.90;;;;;;5068970;28;20221;-80
2022/04/02 10:52:39;;;;;;;2.57;1.30;;;7.60;99.90;;;;;;5067649;28;20213;-83
2022/04/02 10:55:08;;;;;;;2.60;1.00;;;7.70;99.90;;;;;;5067855;28;20217;-86
2022/04/02 10:57:35;;;;;;;2.23;1.00;;;7.50;99.90;;;;;;5068773;28;20205;-82
2022/04/02 11:00:05;;;;;;;2.33;0.80;;;7.30;99.90;;;;;;5069562;28;20579;-82
2022/04/02 11:02:40;;;;;;;2.37;1.20;;;7.30;99.90;;;;;;5080150;28;20217;-82
2022/04/02 11:05:08;;;;;;;3.60;1.37;;;7.30;99.90;;;;;;5091075;28;20262;-83
2022/04/02 11:07:40;;;;;;;2.17;1.00;;;7.30;99.90;;;;;;5090029;28;20215;-81
2022/04/02 11:10:10;;;;;;;2.53;1.40;;;7.20;99.90;;;;;;5087511;28;20289;-85
2022/04/02 11:12:41;;;;;;;1.13;0.93;;;7.10;99.90;;;;;;5089663;28;20319;-82
2022/04/02 11:15:10;;;;;;;2.53;1.40;;;7.10;99.90;;;;;;5074660;28;20256;-83
2022/04/02 11:17:40;;;;;;;3.13;1.13;;;7.10;99.90;;;;;;5068580;28;20209;-79
2022/04/02 11:20:13;;;;;;;3.97;0.97;;;7.00;99.90;;;;;;5069577;28;20301;-82
2022/04/02 11:23:09;;;;;;;2.77;1.17;;;7.10;99.90;;;;;;5066530;28;20232;-83
2022/04/02 11:25:39;;;;;;;1.40;0.80;;;7.30;99.90;;;;;;5064674;28;20220;-79
2022/04/02 11:28:12;;;;;;;3.20;1.13;;;7.70;99.90;;;;;;5066703;28;20209;-84
2022/04/02 11:30:41;;;;;;;4.83;0.90;;;7.70;99.90;;;;;;5069080;28;20263;-81
2022/04/02 11:33:09;;;;;;;1.40;0.90;;;7.50;99.90;;;;;;5068003;28;20333;-80
2022/04/02 11:35:40;;;;;;;2.27;0.90;;;7.30;99.90;;;;;;5067474;28;20223;-82
2022/04/02 11:38:17;;;;;;;1.93;1.10;;;7.30;99.90;;;;;;5067094;28;20547;-80
2022/04/02 11:40:52;;;;;;;1.40;0.80;;;7.30;99.90;;;;;;5067058;28;20246;-83
2022/04/02 11:43:19;;;;;;;2.30;0.80;;;7.20;99.90;;;;;;5066836;28;20204;-81
2022/04/02 11:45:48;;;;;;;1.73;1.00;;;7.30;99.90;;;;;;5065108;28;20224;-80
2022/04/02 11:48:18;;;;;;;4.03;1.07;;;7.70;99.90;;;;;;5077004;28;20285;-79
2022/04/02 11:50:46;;;;;;;2.23;0.73;;;8.00;99.90;;;;;;5073066;28;20221;-80
2022/04/02 11:53:14;;;;;;;1.00;0.70;;;8.50;99.90;;;;;;5065980;28;20585;-79
2022/04/02 11:55:42;;;;;;;3.73;0.73;;;8.80;99.90;;;;;;5072333;28;20497;-81
2022/04/02 11:58:12;;;;;;;2.57;1.00;;;8.90;99.90;;;;;;5086558;28;20882;-80
2022/04/02 12:00:40;;;;;;;3.83;1.23;;;8.90;99.90;;;;;;5087569;28;20208;-82
2022/04/02 12:03:21;;;;;;;1.70;1.03;;;8.40;99.90;;;;;;5088553;28;20216;-83
2022/04/02 12:05:49;;;;;;;2.73;1.00;;;8.00;99.90;;;;;;5079828;28;20339;-80
2022/04/02 12:08:28;;;;;;;3.33;1.17;;;8.10;99.90;;;;;;5066911;28;20917;-81
2022/04/02 12:10:56;;;;;;;2.00;0.70;;;8.20;99.90;;;;;;5066674;28;20201;-83
2022/04/02 12:13:24;;;;;;;2.30;0.70;;;7.90;99.90;;;;;;5065772;28;20221;-81
2022/04/02 12:16:04;;;;;;;3.47;1.00;;;7.70;99.90;;;;;;5064790;28;20232;-81
2022/04/02 12:18:32;;;;;;;1.57;0.70;;;7.50;99.90;;;;;;5064683;28;20212;-78
2022/04/02 12:21:07;;;;;;;0.83;0.73;;;7.50;99.90;;;;;;5063684;28;20220;-79
2022/04/02 12:23:36;;;;;;;7.50;1.10;;;7.50;99.90;;;;;;5065984;28;20286;-84
2022/04/02 12:26:04;;;;;;;2.13;0.80;;;7.80;99.90;;;;;;5064492;28;20233;-81
2022/04/02 12:28:45;;;;;;;2.63;0.80;;;8.00;99.90;;;;;;5066756;28;20216;-80
2022/04/02 12:31:13;;;;;;;2.43;0.83;;;8.00;99.90;;;;;;5070725;28;20270;-85
2022/04/02 12:33:40;;;;;;;2.57;1.00;;;7.90;99.90;;;;;;5082571;28;20347;-85
2022/04/02 12:36:09;;;;;;;2.47;1.00;;;7.90;99.90;;;;;;5088189;28;20251;-80
2022/04/02 12:38:37;;;;;;;2.23;1.10;;;7.90;99.90;;;;;;5072154;28;20228;-79
2022/04/02 12:41:06;;;;;;;1.13;0.87;;;7.80;99.90;;;;;;5066346;28;20209;-79
2022/04/02 12:43:37;;;;;;;1.90;0.97;;;7.70;99.90;;;;;;5066313;28;20202;-85
2022/04/02 12:46:04;;;;;;;3.40;1.17;;;7.60;99.90;;;;;;5069894;28;20215;-82
2022/04/02 12:48:43;;;;;;;3.40;1.20;;;7.60;99.90;;;;;;5080035;28;20612;-78
2022/04/02 12:51:13;;;;;;;2.73;1.10;;;7.90;99.90;;;;;;5087175;28;20271;-86
2022/04/02 12:53:42;;;;;;;1.20;0.90;;;8.20;99.90;;;;;;5081656;28;20787;-82
2022/04/02 12:56:11;;;;;;;2.93;1.03;;;8.50;99.90;;;;;;5065948;28;20227;-81
2022/04/02 12:58:41;;;;;;;2.03;1.10;;;8.40;99.90;;;;;;5066711;28;20540;-80
2022/04/02 13:01:10;;;;;;;1.93;0.87;;;8.40;99.90;;;;;;5066519;28;20675;-80
2022/04/02 13:03:43;;;;;;;3.17;1.20;;;8.60;99.90;;;;;;5067199;28;20201;-81
2022/04/02 13:06:17;;;;;;;2.87;0.90;;;8.90;99.90;;;;;;5067487;28;20316;-81
2022/04/02 13:08:55;;;;;;;1.07;0.80;;;9.00;99.90;;;;;;5064797;28;20596;-80
2022/04/02 13:11:55;;;;;;;1.37;0.73;;;9.00;99.90;;;;;;5067178;28;20209;-80
2022/04/02 13:14:24;;;;;;;1.63;0.90;;;8.60;99.90;;;;;;5060546;28;20260;-83
2022/04/02 13:16:54;;;;;;;1.67;1.00;;;8.10;99.90;;;;;;5065942;28;20233;-76
2022/04/02 13:22:09;;;;;;;1.93;1.13;;;8.30;99.90;;;;;;5068316;28;20213;-86
2022/04/02 13:24:54;;;;;;;2.60;1.17;;;8.40;99.90;;;;;;5066956;28;20224;-81
2022/04/02 13:27:52;;;;;;;3.20;1.10;;;8.40;99.90;;;;;;5067554;28;20244;-82